Time;durP1;ratioP1;P1;durP2;ratioP2;P2;SDS_P1;SDS_P2;PMS_P1;PMS_P2;Temp;Humidity;BMP_temperature;BMP_pressure;BME280_temperature;BME280_humidity;BME280_pressure;Samples;Min_cycle;Max_cycle;Signal;HPM_P1;HPM_P2
2024/02/19 00:00:59;;;;;;;15.68;11.18;;;;;;;6.68;58.63;95905.16;5070204;28;20047;-77
2024/02/19 00:03:25;;;;;;;17.48;11.95;;;;;;;6.63;58.60;95900.06;5070675;28;20111;-78
2024/02/19 00:05:50;;;;;;;18.33;13.40;;;;;;;6.67;58.29;95908.28;5088339;28;20020;-77
2024/02/19 00:08:16;;;;;;;17.45;12.45;;;;;;;6.62;57.52;95893.06;5088911;28;20054;-77
2024/02/19 00:10:41;;;;;;;17.90;12.95;;;;;;;6.59;57.86;95904.75;5087944;28;20039;-77
2024/02/19 00:13:07;;;;;;;15.80;11.80;;;;;;;6.53;58.44;95903.56;5070607;28;20020;-76
2024/02/19 00:15:32;;;;;;;15.00;11.57;;;;;;;6.53;58.93;95903.56;5088132;28;20063;-77
2024/02/19 00:17:58;;;;;;;15.98;11.85;;;;;;;6.48;58.88;95896.56;5088606;28;20024;-77
2024/02/19 00:20:24;;;;;;;16.92;11.23;;;;;;;6.42;58.87;95900.03;5088281;28;20359;-77
2024/02/19 00:22:50;;;;;;;17.65;11.45;;;;;;;6.38;58.47;95895.34;5088164;28;20031;-77
2024/02/19 00:25:15;;;;;;;14.88;11.68;;;;;;;6.37;58.60;95891.06;5088828;28;20028;-77
2024/02/19 00:27:42;;;;;;;17.00;12.80;;;;;;;6.36;58.68;95897.66;5087930;28;20032;-76
2024/02/19 00:30:08;;;;;;;14.43;11.30;;;;;;;6.30;59.55;95901.16;5089187;28;20054;-77
2024/02/19 00:32:33;;;;;;;16.05;11.57;;;;;;;6.36;59.46;95899.63;5088292;28;20021;-76
2024/02/19 00:34:58;;;;;;;14.77;10.70;;;;;;;6.24;59.22;95889.06;5088519;28;20069;-77
2024/02/19 00:37:24;;;;;;;14.82;11.63;;;;;;;6.21;58.66;95889.84;5088086;28;20028;-77
2024/02/19 00:39:49;;;;;;;15.98;11.43;;;;;;;6.11;58.29;95896.81;5088083;28;20059;-75
2024/02/19 00:42:15;;;;;;;13.90;11.40;;;;;;;6.04;58.48;95894.84;5088149;28;20089;-76
2024/02/19 00:44:40;;;;;;;13.70;10.27;;;;;;;5.97;58.53;95892.09;5087777;28;20457;-76
2024/02/19 00:47:06;;;;;;;15.02;10.18;;;;;;;5.93;58.58;95890.50;5088474;28;20102;-77
2024/02/19 00:49:31;;;;;;;15.65;11.13;;;;;;;5.88;58.75;95888.88;5087238;28;20105;-76
2024/02/19 00:51:57;;;;;;;14.63;10.70;;;;;;;5.80;58.57;95887.31;5088347;28;20032;-76
2024/02/19 00:54:22;;;;;;;15.30;10.63;;;;;;;5.74;58.83;95875.19;5087302;28;20115;-77
2024/02/19 00:56:47;;;;;;;13.70;10.98;;;;;;;5.64;59.27;95878.66;5087693;28;20032;-77
2024/02/19 00:59:13;;;;;;;14.15;11.50;;;;;;;5.60;59.17;95873.94;5088049;28;20131;-77
2024/02/19 01:01:38;;;;;;;15.20;11.35;;;;;;;5.47;59.49;95875.44;5068671;28;20071;-76
2024/02/19 01:04:05;;;;;;;16.73;11.82;;;;;;;5.38;59.53;95864.06;5088032;28;20107;-77
2024/02/19 01:06:31;;;;;;;18.48;12.80;;;;;;;5.43;59.70;95869.16;5086892;28;20054;-77
2024/02/19 01:08:57;;;;;;;17.80;13.63;;;;;;;5.39;60.22;95862.94;5087473;28;20027;-76
2024/02/19 01:11:22;;;;;;;17.83;13.35;;;;;;;5.30;60.51;95867.94;5052148;28;20020;-76
2024/02/19 01:13:48;;;;;;;20.73;13.18;;;;;;;5.25;60.67;95865.56;5087959;28;20471;-76
2024/02/19 01:16:13;;;;;;;21.45;13.63;;;;;;;5.15;61.05;95867.03;5087434;28;20050;-78
2024/02/19 01:18:38;;;;;;;19.77;13.80;;;;;;;5.15;61.33;95874.44;5086994;28;20066;-77
2024/02/19 01:21:04;;;;;;;20.08;14.23;;;;;;;5.16;61.30;95867.81;5087645;28;20249;-77
2024/02/19 01:23:30;;;;;;;18.33;12.90;;;;;;;5.10;61.29;95877.50;5086924;28;20028;-76
2024/02/19 01:25:58;;;;;;;20.17;15.13;;;;;;;5.05;61.67;95865.81;5087469;28;20066;-76
2024/02/19 01:28:23;;;;;;;19.70;13.45;;;;;;;4.97;61.75;95861.47;5068780;28;20040;-77
2024/02/19 01:30:49;;;;;;;18.67;13.88;;;;;;;4.94;61.50;95864.19;5087736;28;20493;-76
2024/02/19 01:33:15;;;;;;;22.23;14.90;;;;;;;4.90;61.55;95863.34;5086792;28;20066;-77
2024/02/19 01:35:40;;;;;;;21.48;14.85;;;;;;;4.84;61.95;95860.19;5086797;28;20028;-76
2024/02/19 01:38:05;;;;;;;22.90;15.40;;;;;;;4.82;62.13;95865.25;5087027;28;20128;-76
2024/02/19 01:40:31;;;;;;;27.30;16.38;;;;;;;4.80;62.09;95859.38;5086384;28;20383;-77
2024/02/19 01:43:03;;;;;;;24.85;15.85;;;;;;;4.75;62.42;95851.56;5087133;28;20031;-77
2024/02/19 01:45:28;;;;;;;24.70;16.80;;;;;;;4.74;62.47;95855.44;5086098;28;20174;-76
2024/02/19 01:47:55;;;;;;;26.77;17.42;;;;;;;4.72;62.43;95857.78;5087124;28;20126;-77
2024/02/19 01:50:25;;;;;;;24.52;16.33;;;;;;;4.68;62.68;95854.22;5067905;28;20016;-77
2024/02/19 01:52:51;;;;;;;21.98;15.52;;;;;;;4.62;62.99;95848.34;5068444;28;20023;-76
2024/02/19 01:55:17;;;;;;;23.98;16.55;;;;;;;4.65;63.06;95842.16;5067890;28;20042;-78
2024/02/19 01:57:44;;;;;;;24.88;16.63;;;;;;;4.62;63.24;95840.16;5086060;28;20035;-77
2024/02/19 02:00:10;;;;;;;23.85;16.48;;;;;;;4.61;63.32;95833.16;5068485;28;20078;-77
2024/02/19 02:02:37;;;;;;;20.73;14.45;;;;;;;4.64;63.53;95839.78;5067300;28;20052;-78
2024/02/19 02:05:02;;;;;;;21.13;14.98;;;;;;;4.67;63.55;95831.66;5086967;28;20048;-78
2024/02/19 02:07:29;;;;;;;21.25;14.57;;;;;;;4.66;63.80;95823.88;5085581;28;20067;-77
2024/02/19 02:09:54;;;;;;;21.38;15.32;;;;;;;4.74;64.01;95825.47;5068269;28;20058;-77
2024/02/19 02:12:20;;;;;;;20.83;14.27;;;;;;;4.69;64.11;95825.81;5086132;28;20056;-77
2024/02/19 02:14:45;;;;;;;21.38;14.38;;;;;;;4.71;64.01;95824.31;5086202;28;20480;-77
2024/02/19 02:17:11;;;;;;;22.25;15.75;;;;;;;4.75;63.76;95818.88;5086278;28;20081;-78
2024/02/19 02:19:41;;;;;;;21.98;14.30;;;;;;;4.80;63.18;95821.25;5085203;28;20024;-78
2024/02/19 02:22:07;;;;;;;23.10;14.55;;;;;;;4.73;62.69;95821.97;5067610;28;20498;-77
2024/02/19 02:24:32;;;;;;;22.98;15.18;;;;;;;4.75;62.31;95822.38;5085871;28;20063;-76
2024/02/19 02:26:57;;;;;;;24.55;14.55;;;;;;;4.77;62.17;95820.06;5086312;28;20120;-76
2024/02/19 02:29:24;;;;;;;20.80;14.50;;;;;;;4.78;62.43;95831.75;5067155;28;20038;-76
2024/02/19 02:31:49;;;;;;;20.50;15.25;;;;;;;4.79;62.31;95819.69;5085659;28;20051;-76
2024/02/19 02:34:14;;;;;;;21.27;14.60;;;;;;;4.79;62.27;95820.47;5086345;28;20379;-77
2024/02/19 02:36:40;;;;;;;20.77;14.43;;;;;;;4.72;62.45;95816.91;5084971;28;20382;-77
2024/02/19 02:39:06;;;;;;;19.85;14.18;;;;;;;4.62;62.75;95815.66;5086127;28;20093;-77
2024/02/19 02:41:31;;;;;;;20.77;14.52;;;;;;;4.66;62.92;95832.81;5084987;28;20061;-76
2024/02/19 02:43:58;;;;;;;20.98;14.82;;;;;;;4.67;63.09;95831.66;5086314;28;20028;-77
2024/02/19 02:46:23;;;;;;;21.73;14.73;;;;;;;4.66;63.09;95826.59;5085026;28;20082;-76
2024/02/19 02:48:48;;;;;;;20.45;14.43;;;;;;;4.71;62.74;95823.53;5085887;28;20048;-76
2024/02/19 02:51:14;;;;;;;21.38;14.35;;;;;;;4.68;62.94;95822.31;5085452;28;20103;-77
2024/02/19 02:53:40;;;;;;;19.38;14.27;;;;;;;4.67;62.93;95826.22;5084996;28;20036;-77
2024/02/19 02:56:05;;;;;;;19.90;13.75;;;;;;;4.69;62.96;95825.81;5085397;28;20028;-77
2024/02/19 02:58:33;;;;;;;20.65;14.27;;;;;;;4.67;62.79;95833.59;5084809;28;20127;-76
2024/02/19 03:00:58;;;;;;;19.27;13.30;;;;;;;4.66;62.81;95838.25;5085908;28;20040;-76
2024/02/19 03:03:24;;;;;;;23.08;16.05;;;;;;;4.62;62.79;95836.66;5084872;28;20049;-76
2024/02/19 03:05:49;;;;;;;26.00;16.20;;;;;;;4.56;62.81;95840.91;5051133;28;20138;-76
2024/02/19 03:08:14;;;;;;;24.50;15.07;;;;;;;4.60;62.61;95839.00;5085696;28;20035;-76
2024/02/19 03:10:40;;;;;;;24.83;14.90;;;;;;;4.55;62.40;95836.59;5085136;28;20086;-77
2024/02/19 03:13:05;;;;;;;21.33;15.30;;;;;;;4.54;62.09;95844.00;5068014;28;20024;-76
2024/02/19 03:15:31;;;;;;;20.98;15.05;;;;;;;4.54;62.05;95841.28;5085078;28;20024;-78
2024/02/19 03:17:56;;;;;;;21.33;15.27;;;;;;;4.44;62.70;95833.78;5085793;28;20200;-76
2024/02/19 03:20:23;;;;;;;22.17;16.17;;;;;;;4.45;62.53;95836.13;5066854;28;20028;-76
2024/02/19 03:22:49;;;;;;;23.08;15.85;;;;;;;4.39;62.60;95834.91;5086097;28;20067;-77
2024/02/19 03:25:14;;;;;;;23.05;15.20;;;;;;;4.37;62.77;95831.78;5067164;28;20567;-77
2024/02/19 03:27:40;;;;;;;23.77;15.60;;;;;;;4.28;63.25;95827.78;5066883;28;20496;-77
2024/02/19 03:30:06;;;;;;;20.98;14.73;;;;;;;4.24;63.26;95828.56;5085214;28;20037;-77
2024/02/19 03:32:32;;;;;;;23.77;14.70;;;;;;;4.26;63.46;95820.78;5086779;28;20032;-77
2024/02/19 03:34:57;;;;;;;26.13;15.52;;;;;;;4.21;63.19;95829.28;5089624;28;21020;-77
2024/02/19 03:37:23;;;;;;;25.02;16.58;;;;;;;4.10;63.80;95828.41;5089032;28;20024;-78
2024/02/19 03:39:49;;;;;;;23.77;16.30;;;;;;;4.12;63.82;95830.75;5089754;28;20032;-77
2024/02/19 03:42:14;;;;;;;23.10;16.90;;;;;;;4.13;63.79;95824.94;5070458;28;20028;-77
2024/02/19 03:44:40;;;;;;;23.10;17.00;;;;;;;4.07;63.74;95831.88;5089392;28;20101;-78
2024/02/19 03:47:06;;;;;;;23.38;15.93;;;;;;;4.02;63.63;95826.78;5089132;28;20063;-77
2024/02/19 03:49:31;;;;;;;25.85;16.42;;;;;;;4.00;63.42;95829.84;5088677;28;20031;-77
2024/02/19 03:51:56;;;;;;;23.45;15.27;;;;;;;4.00;63.43;95834.50;5089182;28;20024;-78
2024/02/19 03:54:22;;;;;;;23.77;16.67;;;;;;;4.04;63.15;95823.66;5088470;28;20024;-77
2024/02/19 03:56:48;;;;;;;21.02;14.90;;;;;;;4.02;63.33;95834.16;5088880;28;20062;-76
2024/02/19 03:59:14;;;;;;;21.90;15.48;;;;;;;3.99;63.44;95835.66;5088452;28;20081;-75
2024/02/19 04:01:39;;;;;;;23.05;15.80;;;;;;;3.94;63.29;95844.94;5070663;28;20159;-76
2024/02/19 04:04:05;;;;;;;22.92;14.77;;;;;;;3.94;63.32;95839.50;5070315;28;20165;-77
2024/02/19 04:06:30;;;;;;;19.70;13.77;;;;;;;3.95;63.07;95840.28;5088711;28;20398;-77
2024/02/19 04:08:55;;;;;;;24.52;15.60;;;;;;;3.82;63.16;95833.53;5088672;28;20038;-76
2024/02/19 04:11:21;;;;;;;21.15;14.73;;;;;;;3.83;63.38;95835.09;5070012;28;20442;-76
2024/02/19 04:13:46;;;;;;;20.02;14.00;;;;;;;3.88;63.30;95834.78;5088520;28;20031;-77
2024/02/19 04:16:11;;;;;;;21.40;14.88;;;;;;;3.84;63.25;95840.19;5088017;28;20044;-77
2024/02/19 04:18:37;;;;;;;19.55;14.50;;;;;;;3.84;63.18;95834.75;5089056;28;20099;-77
2024/02/19 04:21:02;;;;;;;20.38;14.70;;;;;;;3.73;63.31;95837.34;5087803;28;20497;-76
2024/02/19 04:23:28;;;;;;;20.05;14.85;;;;;;;3.77;63.39;95836.56;5088709;28;20487;-77
2024/02/19 04:25:53;;;;;;;21.77;15.52;;;;;;;3.76;63.34;95835.81;5088397;28;20033;-78
2024/02/19 04:28:18;;;;;;;21.08;15.35;;;;;;;3.74;63.50;95843.56;5069888;28;20472;-78
2024/02/19 04:30:44;;;;;;;22.70;15.13;;;;;;;3.70;63.71;95832.63;5088351;28;20048;-77
2024/02/19 04:33:09;;;;;;;22.23;15.38;;;;;;;3.63;63.68;95824.38;5087797;28;20031;-77
2024/02/19 04:35:35;;;;;;;23.90;15.68;;;;;;;3.70;63.63;95831.84;5070270;28;20400;-78
2024/02/19 04:38:00;;;;;;;23.23;16.20;;;;;;;3.65;63.74;95824.78;5087777;28;20020;-77
2024/02/19 04:40:26;;;;;;;26.30;16.70;;;;;;;3.68;63.65;95826.00;5088535;28;20024;-77
2024/02/19 04:42:51;;;;;;;20.92;15.88;;;;;;;3.66;63.53;95829.06;5087373;28;20423;-76
2024/02/19 04:45:17;;;;;;;22.35;16.35;;;;;;;3.66;63.52;95822.84;5087272;28;20024;-77
2024/02/19 04:47:42;;;;;;;23.15;16.00;;;;;;;3.67;63.66;95821.69;5087449;28;20086;-77
2024/02/19 04:50:08;;;;;;;22.38;15.85;;;;;;;3.69;63.75;95824.84;5087663;28;20046;-77
2024/02/19 04:52:34;;;;;;;21.40;16.48;;;;;;;3.71;63.84;95823.31;5087586;28;20028;-79
2024/02/19 04:54:59;;;;;;;25.02;16.85;;;;;;;3.69;64.04;95825.63;5087389;28;20443;-77
2024/02/19 04:57:24;;;;;;;26.05;16.65;;;;;;;3.70;63.99;95823.69;5088109;28;20051;-78
2024/02/19 04:59:50;;;;;;;31.27;20.15;;;;;;;3.74;63.96;95821.78;5068977;28;20027;-77
2024/02/19 05:02:15;;;;;;;33.95;22.75;;;;;;;3.72;63.92;95821.38;5088204;28;20048;-77
2024/02/19 05:04:41;;;;;;;33.33;23.05;;;;;;;3.73;63.98;95818.28;5087468;28;20402;-78
2024/02/19 05:07:06;;;;;;;42.03;26.38;;;;;;;3.78;64.08;95819.88;5087663;28;20023;-78
2024/02/19 05:09:31;;;;;;;41.80;28.35;;;;;;;3.83;63.88;95826.94;5087888;28;20675;-79
2024/02/19 05:11:57;;;;;;;48.20;31.48;;;;;;;3.82;63.83;95826.16;5087163;28;20024;-78
2024/02/19 05:14:22;;;;;;;59.22;41.67;;;;;;;3.80;63.96;95820.31;5088295;28;20027;-77
2024/02/19 05:16:48;;;;;;;66.00;46.40;;;;;;;3.80;63.90;95819.53;5087150;28;20020;-78
2024/02/19 05:19:13;;;;;;;59.83;39.97;;;;;;;3.81;63.68;95823.81;5088233;28;20107;-77
2024/02/19 05:21:41;;;;;;;48.67;34.92;;;;;;;3.80;63.58;95822.25;5086779;28;20185;-77
2024/02/19 05:24:08;;;;;;;46.60;33.13;;;;;;;3.78;63.46;95827.25;5069377;28;20449;-77
2024/02/19 05:26:34;;;;;;;47.60;29.70;;;;;;;3.80;63.50;95825.75;5068955;28;20039;-77
2024/02/19 05:29:00;;;;;;;38.28;24.35;;;;;;;3.79;63.58;95824.19;5069072;28;20032;-79
2024/02/19 05:31:33;;;;;;;31.05;22.52;;;;;;;3.83;63.53;95825.00;5087253;28;20502;-78
2024/02/19 05:33:59;;;;;;;33.05;19.77;;;;;;;3.86;63.47;95829.69;5086759;28;20455;-78
2024/02/19 05:36:24;;;;;;;32.75;20.98;;;;;;;3.90;63.29;95824.28;5087863;28;20125;-79
2024/02/19 05:38:50;;;;;;;31.17;20.20;;;;;;;3.89;63.32;95820.00;5087158;28;20114;-78
2024/02/19 05:41:15;;;;;;;31.52;20.58;;;;;;;3.99;63.26;95832.94;5087861;28;20024;-78
2024/02/19 05:43:44;;;;;;;31.42;20.63;;;;;;;3.96;63.54;95833.72;5086659;28;20028;-77
2024/02/19 05:46:09;;;;;;;35.05;21.10;;;;;;;3.87;63.91;95828.53;5086985;28;20035;-76
2024/02/19 05:48:34;;;;;;;29.92;19.75;;;;;;;3.91;63.95;95825.88;5086908;28;20038;-77
2024/02/19 05:51:03;;;;;;;30.58;21.38;;;;;;;3.88;63.89;95830.09;5068505;28;20462;-76
2024/02/19 05:53:33;;;;;;;31.98;20.55;;;;;;;3.93;63.65;95829.00;5087381;28;20016;-76
2024/02/19 05:55:59;;;;;;;35.85;23.45;;;;;;;3.93;63.86;95823.56;5086223;28;20100;-77
2024/02/19 05:58:24;;;;;;;32.70;21.80;;;;;;;3.91;63.85;95829.38;5069168;28;20028;-78
2024/02/19 06:00:50;;;;;;;33.10;21.88;;;;;;;3.93;63.70;95832.50;5086601;28;20498;-78
2024/02/19 06:03:15;;;;;;;34.65;22.70;;;;;;;3.96;63.87;95826.31;5068502;28;20032;-77
2024/02/19 06:05:40;;;;;;;34.60;23.70;;;;;;;3.92;63.98;95824.72;5086868;28;20035;-76
2024/02/19 06:08:07;;;;;;;36.38;22.20;;;;;;;3.93;63.96;95829.00;5086046;28;20119;-77
2024/02/19 06:10:33;;;;;;;38.92;25.02;;;;;;;3.96;63.96;95826.31;5068670;28;20457;-77
2024/02/19 06:12:58;;;;;;;37.03;23.58;;;;;;;3.99;63.95;95827.50;5084360;28;20675;-77
2024/02/19 06:15:24;;;;;;;35.78;22.77;;;;;;;3.99;64.01;95827.50;5068152;28;20028;-78
2024/02/19 06:17:50;;;;;;;35.65;23.27;;;;;;;4.04;63.79;95826.41;5086013;28;20036;-78
2024/02/19 06:20:16;;;;;;;35.22;22.80;;;;;;;4.00;64.02;95827.13;5086958;28;20073;-78
2024/02/19 06:22:41;;;;;;;34.38;22.65;;;;;;;4.06;63.75;95827.56;5086029;28;20106;-78
2024/02/19 06:25:09;;;;;;;35.03;24.00;;;;;;;4.12;63.77;95826.06;5067819;28;20020;-78
2024/02/19 06:27:35;;;;;;;36.20;23.77;;;;;;;4.17;63.80;95827.69;5086538;28;21906;-78
2024/02/19 06:30:00;;;;;;;38.60;25.45;;;;;;;4.15;63.90;95835.44;5085678;28;20047;-78
2024/02/19 06:32:26;;;;;;;38.97;25.10;;;;;;;4.17;63.81;95819.53;5086697;28;20020;-78
2024/02/19 06:34:51;;;;;;;44.97;26.52;;;;;;;4.20;64.10;95827.75;5085536;28;20020;-77
2024/02/19 06:37:17;;;;;;;43.40;26.70;;;;;;;4.24;64.21;95828.56;5086590;28;20113;-77
2024/02/19 06:39:42;;;;;;;42.15;25.80;;;;;;;4.31;64.30;95821.63;5085950;28;20028;-79
2024/02/19 06:42:07;;;;;;;53.03;28.73;;;;;;;4.33;64.49;95830.97;5067826;28;20028;-77
2024/02/19 06:44:33;;;;;;;54.55;32.45;;;;;;;4.42;64.45;95830.66;5085765;28;20059;-79
2024/02/19 06:46:58;;;;;;;48.72;30.42;;;;;;;4.46;64.65;95834.97;5085337;28;20184;-76
2024/02/19 06:49:23;;;;;;;48.47;30.13;;;;;;;4.49;64.71;95833.44;5085920;28;20024;-77
2024/02/19 06:51:50;;;;;;;54.92;31.13;;;;;;;4.55;64.60;95834.66;5085270;28;20067;-77
2024/02/19 06:54:15;;;;;;;47.10;28.95;;;;;;;4.54;64.66;95835.84;5086129;28;20124;-77
2024/02/19 06:56:41;;;;;;;47.78;27.92;;;;;;;4.60;64.50;95845.22;5085326;28;20089;-76
2024/02/19 06:59:06;;;;;;;46.58;28.42;;;;;;;4.63;64.45;95841.72;5085978;28;20100;-78
2024/02/19 07:01:32;;;;;;;46.90;26.90;;;;;;;4.66;64.35;95837.47;5085309;28;20044;-79
2024/02/19 07:03:57;;;;;;;42.65;27.38;;;;;;;4.72;64.35;95833.25;5085631;28;20032;-78
2024/02/19 07:06:22;;;;;;;40.38;26.77;;;;;;;4.73;64.45;95827.41;5033980;28;20062;-77
2024/02/19 07:08:48;;;;;;;41.88;26.15;;;;;;;4.78;64.38;95821.63;5084984;28;20117;-78
2024/02/19 07:11:13;;;;;;;45.28;27.58;;;;;;;4.79;64.44;95825.91;5085944;28;20141;-77
2024/02/19 07:13:39;;;;;;;49.42;29.83;;;;;;;4.85;64.27;95825.56;5085265;28;20050;-78
2024/02/19 07:16:04;;;;;;;47.03;28.77;;;;;;;4.88;64.43;95828.31;5085832;28;20027;-76
2024/02/19 07:18:30;;;;;;;45.15;27.15;;;;;;;4.96;64.12;95827.19;5085807;28;20464;-77
2024/02/19 07:20:55;;;;;;;43.15;26.98;;;;;;;5.03;63.87;95829.97;5085118;28;20370;-78
2024/02/19 07:23:21;;;;;;;45.75;27.73;;;;;;;5.14;63.76;95821.09;5067488;28;20154;-77
2024/02/19 07:25:46;;;;;;;45.10;28.05;;;;;;;5.15;63.63;95817.97;5084782;28;20035;-76
2024/02/19 07:28:12;;;;;;;49.63;29.27;;;;;;;5.16;63.76;95819.56;5085579;28;20028;-78
2024/02/19 07:30:38;;;;;;;46.50;27.83;;;;;;;5.18;63.92;95828.13;5066582;28;20035;-77
2024/02/19 07:33:06;;;;;;;46.33;29.55;;;;;;;5.23;63.65;95824.28;5086047;28;20164;-78
2024/02/19 07:35:32;;;;;;;47.35;28.63;;;;;;;5.27;63.91;95825.81;5085073;28;20108;-78
2024/02/19 07:37:57;;;;;;;44.45;28.45;;;;;;;5.30;64.02;95821.56;5085358;28;20130;-77
2024/02/19 07:40:23;;;;;;;46.40;27.13;;;;;;;5.36;63.83;95824.72;5067486;28;20027;-78
2024/02/19 07:42:49;;;;;;;41.13;25.30;;;;;;;5.41;63.77;95816.19;5066507;28;20024;-77
2024/02/19 07:45:14;;;;;;;45.08;25.63;;;;;;;5.53;63.36;95819.34;5085598;28;20032;-77
2024/02/19 07:47:40;;;;;;;36.75;23.77;;;;;;;5.57;63.18;95813.94;5066807;28;20055;-77
2024/02/19 07:50:05;;;;;;;45.47;25.00;;;;;;;5.56;63.38;95815.88;5085707;28;20455;-78
2024/02/19 07:52:31;;;;;;;35.55;23.48;;;;;;;5.57;63.35;95809.25;5067045;28;20035;-79
2024/02/19 07:54:56;;;;;;;41.40;23.30;;;;;;;5.63;63.46;95809.66;5085250;28;20024;-77
2024/02/19 07:57:21;;;;;;;38.25;23.85;;;;;;;5.66;63.25;95813.56;5066906;28;20032;-77
2024/02/19 07:59:47;;;;;;;39.80;24.45;;;;;;;5.68;63.23;95816.69;5085081;28;20510;-77
2024/02/19 08:02:12;;;;;;;41.55;24.55;;;;;;;5.80;62.98;95816.38;5066823;28;20055;-78
2024/02/19 08:04:38;;;;;;;35.55;24.60;;;;;;;5.84;62.87;95817.91;5084725;28;20036;-77
2024/02/19 08:07:04;;;;;;;44.50;25.55;;;;;;;5.94;62.61;95815.66;5085460;28;20028;-76
2024/02/19 08:09:29;;;;;;;42.85;27.30;;;;;;;5.95;62.61;95817.97;5084614;28;20028;-77
2024/02/19 08:11:57;;;;;;;46.53;27.92;;;;;;;5.94;62.60;95812.91;5085695;28;20106;-77
2024/02/19 08:14:24;;;;;;;46.28;28.80;;;;;;;5.94;62.58;95813.69;5067567;28;20020;-78
2024/02/19 08:16:50;;;;;;;45.35;28.67;;;;;;;5.98;62.41;95819.97;5067191;28;20031;-79
2024/02/19 08:19:16;;;;;;;44.85;27.10;;;;;;;6.02;62.30;95819.94;5088159;28;20394;-78
2024/02/19 08:21:42;;;;;;;45.67;28.60;;;;;;;6.09;62.12;95818.03;5088634;28;20020;-79
2024/02/19 08:24:08;;;;;;;43.70;28.48;;;;;;;6.21;61.89;95818.84;5089303;28;20031;-78
2024/02/19 08:26:34;;;;;;;45.75;28.08;;;;;;;6.17;61.95;95816.09;5069312;28;20034;-78
2024/02/19 08:28:59;;;;;;;47.78;28.70;;;;;;;6.20;61.95;95815.34;5053375;28;20091;-79
2024/02/19 08:31:27;;;;;;;64.18;32.08;;;;;;;6.25;61.65;95819.63;5088320;28;20055;-79
2024/02/19 08:33:55;;;;;;;47.70;29.80;;;;;;;6.27;61.78;95811.84;5088708;28;20097;-81
2024/02/19 08:36:21;;;;;;;48.33;29.70;;;;;;;6.35;61.59;95810.66;5088490;28;20081;-81
2024/02/19 08:38:52;;;;;;;45.50;28.25;;;;;;;6.39;61.49;95806.00;5069940;28;20024;-80
2024/02/19 08:41:18;;;;;;;42.15;27.05;;;;;;;6.51;61.09;95804.84;5088650;28;20035;-82
2024/02/19 08:43:43;;;;;;;43.75;26.92;;;;;;;6.62;61.01;95811.88;5087929;28;20426;-80
2024/02/19 08:46:08;;;;;;;42.45;26.60;;;;;;;6.64;60.96;95811.47;5070079;28;20445;-81
2024/02/19 08:48:34;;;;;;;40.13;26.23;;;;;;;6.72;60.66;95817.75;5087740;28;20028;-79
2024/02/19 08:51:00;;;;;;;39.53;24.50;;;;;;;6.71;60.49;95808.75;5088387;28;20032;-83
2024/02/19 08:53:27;;;;;;;38.47;24.05;;;;;;;6.83;60.22;95810.31;5088281;28;20055;-80
2024/02/19 08:55:53;;;;;;;37.58;23.73;;;;;;;6.92;60.05;95813.41;5069452;28;20062;-81
2024/02/19 08:58:19;;;;;;;37.72;23.95;;;;;;;6.90;59.91;95805.63;5088083;28;20024;-80
2024/02/19 09:00:44;;;;;;;36.88;24.42;;;;;;;7.01;59.49;95808.34;5087564;28;20039;-82
2024/02/19 09:03:09;;;;;;;44.88;25.30;;;;;;;7.04;59.59;95815.75;5088696;28;20107;-84
2024/02/19 09:05:38;;;;;;;40.50;24.00;;;;;;;7.13;59.18;95812.63;5087662;28;20806;-80
2024/02/19 09:08:05;;;;;;;36.67;24.38;;;;;;;7.19;58.95;95806.34;5088189;28;20039;-80
2024/02/19 09:10:30;;;;;;;42.45;26.98;;;;;;;7.29;58.90;95804.00;5088929;28;20089;-82
2024/02/19 09:12:56;;;;;;;42.10;26.70;;;;;;;7.36;58.77;95802.03;5087923;28;20464;-81
2024/02/19 09:15:21;;;;;;;40.28;25.23;;;;;;;7.51;58.27;95800.00;5088510;28;20040;-80
2024/02/19 09:17:46;;;;;;;40.15;26.05;;;;;;;7.57;58.15;95811.34;5069247;28;20059;-81
2024/02/19 09:20:12;;;;;;;41.05;27.38;;;;;;;7.64;58.00;95801.16;5088153;28;20115;-81
2024/02/19 09:22:40;;;;;;;43.22;26.63;;;;;;;7.80;57.60;95806.19;5088210;28;20024;-81
2024/02/19 09:25:05;;;;;;;39.90;27.02;;;;;;;7.92;57.29;95808.47;5070242;28;20059;-81
2024/02/19 09:27:30;;;;;;;45.08;26.75;;;;;;;8.14;56.63;95808.34;5087497;28;20063;-80
2024/02/19 09:29:56;;;;;;;42.70;27.92;;;;;;;8.34;56.25;95805.91;5052263;28;20111;-80
2024/02/19 09:32:22;;;;;;;39.63;27.52;;;;;;;9.47;54.00;95801.44;5087355;28;20055;-80
2024/02/19 09:34:48;;;;;;;40.45;27.70;;;;;;;10.71;50.94;95792.75;5087051;28;20020;-81
2024/02/19 09:37:13;;;;;;;41.33;28.48;;;;;;;11.98;47.33;95806.66;5087374;28;20026;-81
2024/02/19 09:39:39;;;;;;;36.53;25.45;;;;;;;13.10;45.68;95809.25;5068235;28;20054;-81
2024/02/19 09:42:08;;;;;;;37.38;26.17;;;;;;;13.49;43.97;95802.78;5087312;28;20081;-81
2024/02/19 09:44:33;;;;;;;36.10;25.38;;;;;;;14.40;42.00;95806.16;5086568;28;20024;-81
2024/02/19 09:47:02;;;;;;;34.03;24.05;;;;;;;14.68;40.91;95799.00;5068908;28;20620;-81
2024/02/19 09:49:28;;;;;;;40.70;24.58;;;;;;;15.39;39.69;95802.22;5086757;28;20060;-81
2024/02/19 09:52:00;;;;;;;35.08;21.83;;;;;;;16.52;37.14;95803.38;5068534;28;20020;-81
2024/02/19 09:54:27;;;;;;;34.28;21.45;;;;;;;16.91;36.37;95799.84;5087248;28;20016;-81
2024/02/19 09:56:54;;;;;;;31.08;20.42;;;;;;;17.46;35.64;95797.22;5086077;28;20035;-81
2024/02/19 09:59:20;;;;;;;28.17;19.25;;;;;;;17.83;34.34;95794.47;5087177;28;20092;-81
2024/02/19 10:01:45;;;;;;;30.10;21.95;;;;;;;17.29;34.90;95790.38;5085861;28;20103;-81
2024/02/19 10:04:14;;;;;;;31.42;20.65;;;;;;;16.84;35.56;95786.25;5068974;28;20127;-81
2024/02/19 10:06:40;;;;;;;28.08;20.10;;;;;;;17.12;35.39;95792.66;5086613;28;20505;-81
2024/02/19 10:09:08;;;;;;;32.10;21.85;;;;;;;17.99;34.09;95790.59;5086456;28;20417;-81
2024/02/19 10:11:34;;;;;;;30.42;22.05;;;;;;;18.82;33.10;95786.41;5087004;28;20369;-81
2024/02/19 10:14:00;;;;;;;33.72;23.42;;;;;;;19.65;31.41;95774.03;5085877;28;20522;-80
2024/02/19 10:16:25;;;;;;;35.33;24.15;;;;;;;19.36;31.91;95776.19;5086549;28;20065;-81
2024/02/19 10:18:52;;;;;;;33.20;22.02;;;;;;;19.10;32.29;95775.91;5067507;28;20397;-80
2024/02/19 10:21:18;;;;;;;29.75;21.33;;;;;;;18.48;32.34;95770.88;5086659;28;20032;-80
2024/02/19 10:23:46;;;;;;;33.50;20.73;;;;;;;17.70;33.95;95760.47;5085828;28;20020;-80
2024/02/19 10:26:12;;;;;;;33.88;20.80;;;;;;;17.32;34.41;95767.25;5086403;28;20028;-82
2024/02/19 10:28:39;;;;;;;31.35;22.65;;;;;;;17.03;35.40;95761.31;5086271;28;20028;-80
2024/02/19 10:31:05;;;;;;;32.00;22.25;;;;;;;16.23;36.25;95762.03;5085933;28;20027;-81
2024/02/19 10:33:34;;;;;;;30.83;21.23;;;;;;;15.66;37.46;95753.84;5086498;28;20032;-81
2024/02/19 10:36:02;;;;;;;28.65;20.83;;;;;;;16.13;36.97;95764.00;5085813;28;20438;-81
2024/02/19 10:38:28;;;;;;;31.48;21.90;;;;;;;16.72;36.23;95757.38;5068585;28;20541;-79
2024/02/19 10:40:53;;;;;;;35.05;21.77;;;;;;;17.91;34.73;95744.88;5085728;28;20337;-82
2024/02/19 10:43:19;;;;;;;32.78;21.63;;;;;;;17.71;34.84;95737.75;5087218;28;20016;-82
2024/02/19 10:45:46;;;;;;;31.40;21.73;;;;;;;17.31;35.03;95726.00;5068387;28;20458;-82
2024/02/19 10:48:13;;;;;;;29.13;21.25;;;;;;;16.95;35.28;95728.28;5052367;28;20024;-81
2024/02/19 10:50:38;;;;;;;29.35;20.73;;;;;;;16.56;35.95;95723.50;5069068;28;20462;-81
2024/02/19 10:53:04;;;;;;;31.02;20.48;;;;;;;16.20;37.11;95714.56;5085988;28;20040;-80
2024/02/19 10:55:30;;;;;;;30.77;20.85;;;;;;;15.81;37.75;95712.50;5067722;28;20032;-80
2024/02/19 10:57:55;;;;;;;28.20;19.50;;;;;;;15.28;38.91;95718.69;5085188;28;20468;-80
2024/02/19 11:00:25;;;;;;;27.23;18.80;;;;;;;14.87;39.67;95717.72;5086336;28;20028;-81
2024/02/19 11:03:08;;;;;;;27.88;17.92;;;;;;;14.13;41.23;95700.69;5067659;28;20337;-81
2024/02/19 11:05:44;;;;;;;28.30;18.80;;;;;;;13.99;41.88;95704.63;5067372;28;20470;-79
2024/02/19 11:08:22;;;;;;;33.08;20.02;;;;;;;14.23;41.38;95703.13;5086302;28;20065;-80
2024/02/19 11:10:52;;;;;;;28.60;18.05;;;;;;;13.93;42.34;95706.41;5067075;28;20423;-80
2024/02/19 11:13:18;;;;;;;28.70;18.27;;;;;;;13.58;43.04;95697.16;5086055;28;20439;-80
2024/02/19 11:15:45;;;;;;;28.75;15.70;;;;;;;12.87;44.21;95702.59;5085523;28;20050;-80
2024/02/19 11:18:11;;;;;;;24.63;15.73;;;;;;;12.76;44.41;95689.06;5067874;28;20055;-81